Time;durP1;ratioP1;P1;durP2;ratioP2;P2;SDS_P1;SDS_P2;PMS_P1;PMS_P2;Temp;Humidity;BMP_temperature;BMP_pressure;BME280_temperature;BME280_humidity;BME280_pressure;Samples;Min_cycle;Max_cycle;Signal;HPM_P1;HPM_P2
2023/03/07 00:01:27;;;;;;;0.60;0.60;;;;;;;9.90;69.66;94785.03;5112527;28;20510;-58
2023/03/07 00:03:56;;;;;;;0.90;0.90;;;;;;;8.63;70.29;94581.59;5112773;28;20465;-58
2023/03/07 00:06:25;;;;;;;1.07;0.70;;;;;;;9.90;69.82;94764.66;5112439;28;20962;-58
2023/03/07 00:08:56;;;;;;;2.10;2.00;;;;;;;9.99;68.91;94780.75;5112322;28;20535;-58
2023/03/07 00:11:25;;;;;;;0.60;0.60;;;;;;;8.73;68.44;94584.16;5111802;28;20412;-58
2023/03/07 00:13:54;;;;;;;0.40;0.30;;;;;;;10.10;69.67;94769.75;5111734;28;20780;-58
2023/03/07 00:16:25;;;;;;;0.30;0.20;;;;;;;10.16;69.31;94776.63;5112034;28;20515;-59
2023/03/07 00:18:55;;;;;;;0.40;0.30;;;;;;;10.09;71.00;94770.06;5111745;28;20432;-58
2023/03/07 00:21:26;;;;;;;0.63;0.63;;;;;;;10.24;69.20;94764.66;5111864;28;20471;-58
2023/03/07 00:23:55;;;;;;;0.40;0.37;;;;;;;10.43;71.11;94760.19;5112155;28;20462;-58
2023/03/07 00:26:24;;;;;;;0.40;0.30;;;;;;;9.81;69.45;94694.88;5112043;28;20473;-58
2023/03/07 00:28:54;;;;;;;0.30;0.20;;;;;;;9.81;69.22;94768.97;5112426;28;20495;-58
2023/03/07 00:31:23;;;;;;;5.03;0.40;;;;;;;9.56;69.20;94745.34;5112018;28;20439;-58
2023/03/07 00:33:53;;;;;;;0.30;0.20;;;;;;;9.51;68.82;94689.84;5112439;28;20447;-58
2023/03/07 00:36:22;;;;;;;0.73;0.73;;;;;;;9.67;68.45;94659.53;5112002;28;20970;-58
2023/03/07 00:38:51;;;;;;;0.30;0.20;;;;;;;9.70;67.94;94693.38;5112147;28;20755;-58
2023/03/07 00:41:22;;;;;;;0.50;0.50;;;;;;;10.30;67.57;94742.31;5112120;28;20453;-58
2023/03/07 00:43:51;;;;;;;0.40;0.30;;;;;;;10.28;66.23;94711.88;5111873;28;20936;-58
2023/03/07 00:46:21;;;;;;;0.40;0.30;;;;;;;10.52;66.16;94747.94;5111685;28;20518;-58
2023/03/07 00:48:49;;;;;;;0.60;0.60;;;;;;;10.52;67.64;94747.13;5111429;28;20426;-59
2023/03/07 00:51:20;;;;;;;0.30;0.20;;;;;;;10.39;67.68;94743.31;5111509;28;21077;-58
2023/03/07 00:53:49;;;;;;;2.37;0.30;;;;;;;10.46;68.10;94742.94;5111793;28;20876;-58
2023/03/07 00:56:19;;;;;;;0.70;0.50;;;;;;;10.33;68.72;94735.66;5111704;28;20438;-58
2023/03/07 00:58:47;;;;;;;1.10;0.40;;;;;;;9.62;68.49;94629.69;5111734;28;20416;-58
2023/03/07 01:01:19;;;;;;;0.40;0.40;;;;;;;10.57;68.48;94731.97;5111896;28;20952;-58
2023/03/07 01:03:48;;;;;;;0.43;0.43;;;;;;;10.49;68.38;94729.94;5111948;28;20428;-58
2023/03/07 01:06:21;;;;;;;1.13;0.30;;;;;;;10.64;67.35;94734.28;5111534;28;20439;-58
2023/03/07 01:08:49;;;;;;;0.77;0.73;;;;;;;10.66;66.33;94737.41;5111966;28;20420;-58
2023/03/07 01:11:18;;;;;;;0.33;0.23;;;;;;;9.54;67.02;94641.66;5111689;28;20439;-58
2023/03/07 01:13:46;;;;;;;1.17;0.30;;;;;;;10.49;67.49;94737.88;5111656;28;20934;-58
2023/03/07 01:16:18;;;;;;;0.53;0.40;;;;;;;10.37;67.35;94695.13;5111556;28;20431;-59
2023/03/07 01:18:50;;;;;;;0.40;0.30;;;;;;;10.55;67.05;94726.13;5111039;28;20427;-58
2023/03/07 01:21:22;;;;;;;1.37;1.27;;;;;;;10.47;67.28;94737.38;5111196;28;20530;-58
2023/03/07 01:23:51;;;;;;;0.63;0.30;;;;;;;10.08;67.94;94687.19;5111441;28;20440;-58
2023/03/07 01:26:22;;;;;;;0.47;0.27;;;;;;;10.04;69.50;94717.91;5111764;28;20859;-59
2023/03/07 01:28:51;;;;;;;0.50;0.40;;;;;;;9.48;69.04;94624.28;5111637;28;20434;-58
2023/03/07 01:31:20;;;;;;;0.30;0.20;;;;;;;5.03;68.73;93916.63;5111409;28;20915;-59
2023/03/07 01:33:49;;;;;;;0.30;0.20;;;;;;;10.26;70.57;94717.47;5111340;28;20995;-59
2023/03/07 01:36:21;;;;;;;0.40;0.30;;;;;;;9.95;69.97;94716.97;5111426;28;20478;-59
2023/03/07 01:38:54;;;;;;;0.50;0.40;;;;;;;9.71;72.02;94705.56;5111095;28;20443;-58
2023/03/07 01:41:24;;;;;;;0.30;0.23;;;;;;;10.05;73.31;94703.63;5111442;28;20570;-58
2023/03/07 01:43:52;;;;;;;1.13;1.03;;;;;;;10.00;71.81;94703.66;5110899;28;20987;-58
2023/03/07 01:46:30;;;;;;;0.30;0.20;;;;;;;9.99;71.11;94686.19;5111604;28;20464;-58
2023/03/07 01:49:02;;;;;;;0.50;0.40;;;;;;;10.15;71.12;94703.53;5111249;28;20531;-58
2023/03/07 01:51:32;;;;;;;1.57;1.57;;;;;;;10.11;70.40;94705.16;5111147;28;20775;-58
2023/03/07 01:54:04;;;;;;;0.30;0.27;;;;;;;10.10;70.11;94700.91;5111242;28;20412;-58
2023/03/07 01:56:34;;;;;;;1.70;0.80;;;;;;;10.03;71.33;94699.69;5111405;28;20458;-58
2023/03/07 01:59:04;;;;;;;0.30;0.20;;;;;;;10.03;70.80;94720.84;5111214;28;20423;-58
2023/03/07 02:01:33;;;;;;;0.40;0.30;;;;;;;9.92;70.61;94704.28;5113102;28;20474;-58
2023/03/07 02:04:07;;;;;;;0.30;0.20;;;;;;;9.88;71.40;94702.47;5114727;28;20434;-58
2023/03/07 02:06:38;;;;;;;0.33;0.20;;;;;;;9.39;70.42;94649.72;5114879;28;20521;-58
2023/03/07 02:09:12;;;;;;;0.30;0.30;;;;;;;9.48;72.80;94687.75;5114452;28;20514;-58
2023/03/07 02:11:42;;;;;;;0.40;0.40;;;;;;;9.56;73.56;94698.50;5115047;28;20557;-58
2023/03/07 02:14:11;;;;;;;0.70;0.70;;;;;;;9.57;72.66;94694.81;5114115;28;20442;-58
2023/03/07 02:16:40;;;;;;;0.50;0.40;;;;;;;8.65;71.84;94568.13;5114721;28;20431;-59
2023/03/07 02:19:20;;;;;;;0.63;0.63;;;;;;;8.99;73.93;94710.81;5114542;28;20430;-58
2023/03/07 02:21:55;;;;;;;0.50;0.50;;;;;;;9.21;73.81;94701.44;5114177;28;20900;-58
2023/03/07 02:24:30;;;;;;;1.03;0.40;;;;;;;8.84;72.98;94606.03;5114649;28;20437;-58
2023/03/07 02:26:59;;;;;;;0.40;0.37;;;;;;;8.71;74.59;94705.16;5114774;28;20425;-58
2023/03/07 02:29:28;;;;;;;0.50;0.40;;;;;;;8.16;77.83;94713.28;5114365;28;20845;-58
2023/03/07 02:31:57;;;;;;;0.30;0.30;;;;;;;8.54;78.85;94707.38;5114330;28;20787;-59
2023/03/07 02:34:27;;;;;;;0.50;0.33;;;;;;;7.92;81.12;94710.41;5114336;28;20442;-58
2023/03/07 02:37:00;;;;;;;0.50;0.40;;;;;;;7.27;84.10;94620.84;5114573;28;20438;-58
2023/03/07 02:39:29;;;;;;;0.50;0.30;;;;;;;7.97;86.59;94654.22;5114312;28;20445;-58
2023/03/07 02:42:03;;;;;;;0.73;0.70;;;;;;;7.79;87.67;94710.19;5114258;28;20585;-58
2023/03/07 02:44:32;;;;;;;1.07;1.07;;;;;;;7.34;88.38;94679.38;5114291;28;20829;-59
2023/03/07 02:47:01;;;;;;;0.40;0.30;;;;;;;7.67;91.15;94671.69;5114035;28;20419;-58
2023/03/07 02:49:29;;;;;;;0.87;0.63;;;;;;;8.07;86.61;94718.31;5114079;28;20437;-58
2023/03/07 02:51:59;;;;;;;0.70;0.70;;;;;;;7.57;86.74;94703.34;5113994;28;20431;-58
2023/03/07 02:54:28;;;;;;;0.43;0.43;;;;;;;7.75;100.00;94632.63;5111925;28;20468;-59
2023/03/07 02:56:56;;;;;;;0.40;0.40;;;;;;;8.13;87.33;94701.41;5113114;28;20430;-57
2023/03/07 02:59:27;;;;;;;0.50;0.50;;;;;;;7.69;86.53;94674.84;5113901;28;20431;-57
2023/03/07 03:01:56;;;;;;;0.30;0.20;;;;;;;8.43;89.35;94691.81;5113933;28;20884;-57
2023/03/07 03:04:24;;;;;;;0.50;0.30;;;;;;;8.54;85.61;94694.16;5113641;28;20447;-57
2023/03/07 03:06:53;;;;;;;5.60;0.50;;;;;;;8.38;84.42;94676.78;5113847;28;20512;-58
2023/03/07 03:09:21;;;;;;;0.40;0.30;;;;;;;8.45;85.80;94629.75;5113458;28;20425;-58
2023/03/07 03:11:50;;;;;;;0.40;0.20;;;;;;;8.76;84.32;94651.50;5113262;28;20418;-58
2023/03/07 03:14:18;;;;;;;0.60;0.60;;;;;;;8.78;82.10;94652.81;5113299;28;20459;-58
2023/03/07 03:16:48;;;;;;;0.37;0.30;;;;;;;8.67;81.67;94684.84;5113504;28;20419;-58
2023/03/07 03:19:16;;;;;;;0.60;0.60;;;;;;;8.38;82.55;94682.06;5113417;28;20424;-58
2023/03/07 03:21:45;;;;;;;0.40;0.30;;;;;;;8.65;83.50;94693.03;5112917;28;20564;-58
2023/03/07 03:24:13;;;;;;;0.40;0.20;;;;;;;8.34;81.46;94680.25;5113412;28;20580;-58
2023/03/07 03:26:42;;;;;;;0.30;0.20;;;;;;;8.46;80.10;94665.69;5113587;28;20480;-58
2023/03/07 03:29:11;;;;;;;0.70;0.30;;;;;;;8.69;78.48;94694.09;5113450;28;20457;-58
2023/03/07 03:31:39;;;;;;;0.30;0.20;;;;;;;7.84;82.96;94703.06;5113176;28;20439;-58
2023/03/07 03:34:10;;;;;;;0.73;0.73;;;;;;;8.11;85.38;94697.47;5113169;28;20907;-58
2023/03/07 03:36:38;;;;;;;2.00;0.40;;;;;;;8.14;85.49;94692.44;5113343;28;20547;-58
2023/03/07 03:39:09;;;;;;;3.13;0.40;;;;;;;8.27;85.11;94675.28;5113040;28;20483;-58
2023/03/07 03:41:38;;;;;;;0.40;0.33;;;;;;;7.63;82.87;94675.13;5112849;28;20514;-58
2023/03/07 03:44:07;;;;;;;0.50;0.50;;;;;;;7.31;86.75;94670.13;5112916;28;20531;-58
2023/03/07 03:46:36;;;;;;;0.40;0.40;;;;;;;7.55;86.42;94700.19;5112906;28;20465;-58
2023/03/07 03:49:05;;;;;;;0.60;0.60;;;;;;;6.72;85.55;94545.28;5112895;28;20425;-58
2023/03/07 03:51:35;;;;;;;1.03;1.03;;;;;;;8.23;83.43;94697.94;5112672;28;20481;-58
2023/03/07 03:54:03;;;;;;;0.40;0.40;;;;;;;8.44;81.14;94707.41;5112172;28;20464;-58
2023/03/07 03:56:32;;;;;;;0.40;0.30;;;;;;;8.31;81.08;94707.97;5112319;28;20789;-57
2023/03/07 03:59:01;;;;;;;0.73;0.73;;;;;;;7.26;79.88;94564.72;5112733;28;20815;-57
2023/03/07 04:01:29;;;;;;;0.40;0.30;;;;;;;7.93;80.27;94635.50;5112554;28;20496;-58
2023/03/07 04:03:58;;;;;;;0.40;0.40;;;;;;;7.68;79.30;94572.28;5112488;28;20431;-58
2023/03/07 04:06:28;;;;;;;0.30;0.20;;;;;;;8.52;79.67;94708.69;5112542;28;20435;-58
2023/03/07 04:08:58;;;;;;;1.17;0.30;;;;;;;7.27;79.04;94500.41;5112522;28;20438;-58
2023/03/07 04:11:27;;;;;;;2.03;0.73;;;;;;;7.03;78.72;94460.69;5112613;28;20932;-58
2023/03/07 04:13:55;;;;;;;0.83;0.83;;;;;;;8.60;78.91;94695.69;5112911;28;20442;-58
2023/03/07 04:16:24;;;;;;;1.60;0.83;;;;;;;8.45;78.50;94687.09;5112325;28;20463;-58
2023/03/07 04:18:52;;;;;;;0.50;0.50;;;;;;;8.65;77.33;94682.47;5112451;28;20436;-58
2023/03/07 04:21:22;;;;;;;0.90;0.90;;;;;;;8.79;77.06;94694.03;5111485;28;20530;-58
2023/03/07 04:23:54;;;;;;;1.27;0.83;;;;;;;8.72;77.44;94705.97;5111291;28;20443;-58
2023/03/07 04:26:24;;;;;;;4.90;2.97;;;;;;;7.20;81.49;94629.03;5112557;28;20541;-58
2023/03/07 04:28:53;;;;;;;3.20;3.00;;;;;;;7.58;83.21;94699.66;5111869;28;20448;-58
2023/03/07 04:31:23;;;;;;;2.00;1.37;;;;;;;8.04;85.09;94665.28;5112219;28;20768;-58
2023/03/07 04:33:54;;;;;;;2.23;2.13;;;;;;;8.22;84.29;94691.09;5112385;28;20428;-58
2023/03/07 04:36:23;;;;;;;2.80;2.60;;;;;;;8.10;82.60;94693.22;5112154;28;20421;-58
2023/03/07 04:38:52;;;;;;;1.73;0.80;;;;;;;8.00;82.78;94701.97;5112328;28;20856;-59
2023/03/07 04:41:25;;;;;;;1.37;1.30;;;;;;;8.11;82.97;94692.19;5112276;28;20437;-58
2023/03/07 04:43:55;;;;;;;0.50;0.50;;;;;;;8.21;81.54;94692.16;5111871;28;20428;-58
2023/03/07 04:46:23;;;;;;;0.47;0.40;;;;;;;6.79;80.49;94551.06;5112233;28;20500;-59
2023/03/07 04:48:52;;;;;;;0.30;0.30;;;;;;;7.91;80.52;94676.41;5111099;28;20519;-59
2023/03/07 04:51:21;;;;;;;0.53;0.40;;;;;;;7.28;82.48;94631.16;5112083;28;20926;-59
2023/03/07 04:53:50;;;;;;;1.17;1.17;;;;;;;7.11;84.47;94666.72;5112260;28;20489;-59
2023/03/07 04:56:18;;;;;;;0.67;0.67;;;;;;;7.14;87.65;94708.34;5111817;28;20448;-59
2023/03/07 04:58:47;;;;;;;0.60;0.60;;;;;;;6.63;88.54;94613.47;5112024;28;20437;-59
2023/03/07 05:01:17;;;;;;;3.57;0.70;;;;;;;6.30;92.61;94688.41;5112202;28;20436;-59
2023/03/07 05:03:46;;;;;;;0.43;0.40;;;;;;;6.62;97.31;94716.41;5111814;28;20426;-58
2023/03/07 05:06:16;;;;;;;0.70;0.70;;;;;;;6.05;100.00;94655.94;5111863;28;20433;-59
2023/03/07 05:08:44;;;;;;;0.90;0.90;;;;;;;6.67;100.00;94708.53;5112142;28;20435;-59
2023/03/07 05:11:13;;;;;;;4.67;1.80;;;;;;;6.68;100.00;94723.28;5111779;28;20430;-59
2023/03/07 05:13:41;;;;;;;0.30;0.20;;;;;;;6.54;100.00;94686.13;5111975;28;20504;-59
2023/03/07 05:16:10;;;;;;;0.83;0.83;;;;;;;7.32;95.67;94731.56;5111754;28;20427;-59
2023/03/07 05:18:39;;;;;;;0.30;0.30;;;;;;;7.44;93.28;94730.25;5111550;28;20847;-59
2023/03/07 05:21:08;;;;;;;3.90;0.50;;;;;;;7.58;92.66;94727.88;5111773;28;20979;-59
2023/03/07 05:23:36;;;;;;;0.40;0.30;;;;;;;7.67;91.74;94727.09;5111400;28;20561;-59
2023/03/07 05:26:05;;;;;;;0.37;0.30;;;;;;;7.30;90.63;94665.13;5111585;28;20425;-59
2023/03/07 05:28:34;;;;;;;0.90;0.90;;;;;;;7.77;88.73;94728.16;5111445;28;20965;-59
2023/03/07 05:31:02;;;;;;;0.90;0.63;;;;;;;7.43;91.46;94731.31;5111590;28;20431;-59
2023/03/07 05:33:30;;;;;;;0.53;0.53;;;;;;;7.69;91.34;94732.88;5111591;28;20449;-59
2023/03/07 05:36:02;;;;;;;1.30;1.20;;;;;;;8.06;88.29;94723.84;5112968;28;20504;-59
2023/03/07 05:38:31;;;;;;;3.53;1.00;;;;;;;7.20;86.12;94578.19;5115376;28;20450;-59
2023/03/07 05:40:59;;;;;;;1.30;1.27;;;;;;;8.08;86.64;94725.16;5114989;28;20438;-58
2023/03/07 05:43:27;;;;;;;1.80;1.60;;;;;;;7.89;85.99;94712.81;5115473;28;20486;-59
2023/03/07 05:45:56;;;;;;;0.57;0.50;;;;;;;7.34;84.11;94595.81;5115722;28;20417;-59
2023/03/07 05:48:24;;;;;;;1.33;1.23;;;;;;;8.35;84.18;94727.50;5115656;28;20504;-58
2023/03/07 05:50:53;;;;;;;2.67;1.53;;;;;;;7.99;83.29;94641.56;5115199;28;20431;-58
2023/03/07 05:53:23;;;;;;;3.10;1.37;;;;;;;8.50;83.32;94731.94;5115062;28;20435;-57
2023/03/07 05:55:51;;;;;;;0.40;0.40;;;;;;;8.82;81.87;94732.34;5114289;28;20445;-58
2023/03/07 05:58:20;;;;;;;0.60;0.60;;;;;;;9.25;80.59;94733.41;5114576;28;20827;-58
2023/03/07 06:00:48;;;;;;;0.60;0.50;;;;;;;9.54;80.84;94729.75;5114888;28;20930;-58
2023/03/07 06:03:16;;;;;;;0.73;0.63;;;;;;;9.35;79.75;94712.97;5114477;28;20473;-58
2023/03/07 06:05:45;;;;;;;4.87;1.87;;;;;;;9.02;83.04;94699.72;5114979;28;20808;-59
2023/03/07 06:08:13;;;;;;;2.53;0.97;;;;;;;8.31;85.41;94660.47;5114497;28;21029;-58
2023/03/07 06:10:43;;;;;;;2.17;2.07;;;;;;;8.55;86.68;94708.94;5113930;28;20434;-59
2023/03/07 06:13:15;;;;;;;1.50;1.40;;;;;;;8.63;87.36;94716.28;5114661;28;20490;-59
2023/03/07 06:15:44;;;;;;;1.67;1.47;;;;;;;9.17;85.27;94720.75;5114433;28;20416;-59
2023/03/07 06:18:13;;;;;;;2.10;1.00;;;;;;;9.79;81.33;94720.81;5115109;28;20458;-60
2023/03/07 06:20:42;;;;;;;0.50;0.47;;;;;;;10.10;80.73;94722.09;5114550;28;20466;-59
2023/03/07 06:23:10;;;;;;;1.07;0.97;;;;;;;10.32;78.06;94715.56;5114731;28;20569;-59
2023/03/07 06:25:40;;;;;;;1.70;0.47;;;;;;;10.71;76.24;94713.50;5115127;28;20435;-58
2023/03/07 06:28:10;;;;;;;0.63;0.63;;;;;;;10.66;74.90;94689.72;5114735;28;20552;-59
2023/03/07 06:30:38;;;;;;;1.07;1.07;;;;;;;11.04;73.33;94720.50;5114574;28;20432;-59
2023/03/07 06:33:06;;;;;;;2.00;0.97;;;;;;;11.13;73.58;94716.13;5114379;28;20438;-59
2023/03/07 06:35:38;;;;;;;1.60;1.50;;;;;;;9.30;77.27;94615.19;5114333;28;20493;-59
2023/03/07 06:38:06;;;;;;;1.30;1.30;;;;;;;9.77;79.34;94715.00;5114403;28;20515;-59
2023/03/07 06:40:35;;;;;;;1.00;1.00;;;;;;;9.93;78.82;94716.47;5114322;28;20482;-59
2023/03/07 06:43:03;;;;;;;0.60;0.60;;;;;;;10.11;76.54;94669.94;5114255;28;21005;-60
2023/03/07 06:45:33;;;;;;;1.60;1.50;;;;;;;10.36;75.80;94721.88;5114002;28;20440;-60
2023/03/07 06:48:02;;;;;;;0.40;0.30;;;;;;;9.28;74.38;94516.03;5112519;28;20468;-60
2023/03/07 06:50:31;;;;;;;0.60;0.40;;;;;;;10.48;74.33;94687.81;5113470;28;20432;-60
2023/03/07 06:53:08;;;;;;;0.57;0.57;;;;;;;11.44;71.52;94738.47;5113956;28;20481;-61
2023/03/07 06:55:40;;;;;;;0.80;0.77;;;;;;;10.80;70.95;94714.47;5114252;28;20510;-62
2023/03/07 06:58:09;;;;;;;0.57;0.57;;;;;;;8.97;70.52;94327.13;5113884;28;20460;-62
2023/03/07 07:00:42;;;;;;;1.90;1.60;;;;;;;9.35;69.60;94326.09;5113570;28;20460;-62
2023/03/07 07:07:27;;;;;;;0.50;0.50;;;;;;;8.46;63.73;94111.19;5112849;28;20457;-61
2023/03/07 07:09:55;;;;;;;1.30;1.20;;;;;;;12.41;63.78;94703.94;5113037;28;20428;-61
2023/03/07 07:12:24;;;;;;;0.50;0.50;;;;;;;13.16;63.87;94730.88;5113619;28;20420;-60
2023/03/07 07:14:52;;;;;;;0.80;0.80;;;;;;;13.94;62.52;94725.06;5113114;28;20501;-61
2023/03/07 07:17:22;;;;;;;0.70;0.47;;;;;;;13.81;62.53;94720.59;5113288;28;20460;-61
2023/03/07 07:19:50;;;;;;;0.77;0.77;;;;;;;14.63;59.39;94685.44;5113600;28;20536;-61
2023/03/07 07:22:18;;;;;;;1.07;0.50;;;;;;;15.56;56.31;94721.41;5112935;28;20492;-61
2023/03/07 07:24:47;;;;;;;0.77;0.77;;;;;;;15.80;55.46;94719.06;5112742;28;20511;-61
2023/03/07 07:27:15;;;;;;;1.93;1.80;;;;;;;15.93;54.38;94722.66;5113604;28;20428;-61
2023/03/07 07:29:43;;;;;;;0.40;0.30;;;;;;;15.97;54.49;94709.44;5113221;28;20424;-60
2023/03/07 07:32:12;;;;;;;2.30;1.97;;;;;;;14.09;57.36;94725.78;5112963;28;20459;-62
2023/03/07 07:34:42;;;;;;;4.23;0.83;;;;;;;13.88;59.29;94731.63;5113409;28;20503;-61
2023/03/07 07:37:10;;;;;;;0.43;0.40;;;;;;;15.18;57.02;94723.06;5113223;28;20431;-60
2023/03/07 07:39:42;;;;;;;3.60;0.63;;;;;;;14.87;56.54;94696.50;5113393;28;20432;-60
2023/03/07 07:42:11;;;;;;;1.63;1.53;;;;;;;15.76;56.76;94720.00;5112979;28;20436;-62
2023/03/07 07:44:39;;;;;;;0.87;0.83;;;;;;;17.23;51.50;94713.06;5112185;28;20518;-64
2023/03/07 07:47:08;;;;;;;0.50;0.50;;;;;;;17.39;50.21;94712.16;5112777;28;20971;-66
2023/03/07 07:49:36;;;;;;;1.63;1.53;;;;;;;15.99;49.95;94526.25;5112728;28;20426;-67
2023/03/07 07:52:06;;;;;;;0.73;0.73;;;;;;;16.05;51.09;94637.25;5112619;28;20432;-70
2023/03/07 07:54:34;;;;;;;0.40;0.30;;;;;;;17.35;50.41;94708.56;5112732;28;20524;-73
2023/03/07 07:57:03;;;;;;;2.07;1.97;;;;;;;17.93;49.16;94704.16;5112651;28;20423;-76
2023/03/07 07:59:33;;;;;;;0.47;0.40;;;;;;;18.71;47.03;94667.34;5113041;28;20427;-75
2023/03/07 08:02:01;;;;;;;0.50;0.40;;;;;;;18.88;47.04;94702.00;5112589;28;20462;-71
2023/03/07 08:04:29;;;;;;;0.63;0.60;;;;;;;19.44;47.23;94700.31;5112690;28;20498;-69
2023/03/07 08:06:58;;;;;;;1.13;0.87;;;;;;;18.77;46.54;94696.31;5111902;28;20428;-67
2023/03/07 08:09:28;;;;;;;0.77;0.77;;;;;;;18.92;46.73;94700.25;5112731;28;20479;-64
2023/03/07 08:11:58;;;;;;;0.40;0.30;;;;;;;19.37;45.73;94686.66;5112325;28;20598;-62
2023/03/07 08:14:26;;;;;;;1.00;1.00;;;;;;;18.03;47.42;94675.06;5112543;28;20438;-60
2023/03/07 08:16:55;;;;;;;0.83;0.83;;;;;;;17.70;47.62;94687.66;5112260;28;20854;-59
2023/03/07 08:19:23;;;;;;;0.83;0.67;;;;;;;18.72;46.27;94658.94;5112316;28;20523;-59
2023/03/07 08:21:51;;;;;;;1.17;0.70;;;;;;;19.21;45.96;94694.59;5112333;28;20471;-61
2023/03/07 08:24:19;;;;;;;0.50;0.50;;;;;;;18.63;45.72;94673.59;5112140;28;20479;-60
2023/03/07 08:27:03;;;;;;;0.50;0.50;;;;;;;19.12;45.99;94690.50;5112606;28;20439;-60
2023/03/07 08:29:34;;;;;;;0.90;0.83;;;;;;;19.80;44.50;94694.84;5112102;28;20435;-60
2023/03/07 08:32:02;;;;;;;0.60;0.53;;;;;;;19.17;45.36;94690.25;5112038;28;20489;-61
2023/03/07 08:34:33;;;;;;;1.93;1.77;;;;;;;18.80;45.84;94679.53;5111841;28;20430;-63
2023/03/07 08:37:02;;;;;;;0.40;0.33;;;;;;;18.70;45.47;94626.28;5111907;28;20416;-67
2023/03/07 08:39:31;;;;;;;1.00;0.50;;;;;;;18.19;47.53;94691.31;5112196;28;20550;-68
2023/03/07 08:41:59;;;;;;;0.40;0.30;;;;;;;18.07;47.37;94691.25;5112118;28;20416;-67
2023/03/07 08:44:29;;;;;;;0.40;0.33;;;;;;;18.46;46.81;94688.00;5111781;28;20471;-68
2023/03/07 08:46:57;;;;;;;12.00;0.40;;;;;;;19.76;44.41;94687.81;5111428;28;20420;-66
2023/03/07 08:49:26;;;;;;;0.40;0.30;;;;;;;20.05;43.95;94679.38;5111615;28;20432;-68
2023/03/07 08:51:55;;;;;;;1.87;0.87;;;;;;;20.66;43.19;94677.13;5111327;28;20448;-61
2023/03/07 08:54:23;;;;;;;0.40;0.30;;;;;;;20.92;43.45;94670.06;5111522;28;20459;-60
2023/03/07 08:56:51;;;;;;;0.50;0.37;;;;;;;20.70;43.75;94641.06;5111206;28;20923;-59
2023/03/07 08:59:19;;;;;;;0.77;0.67;;;;;;;20.89;41.97;94670.78;5112065;28;20485;-59
2023/03/07 09:01:49;;;;;;;0.57;0.57;;;;;;;19.68;43.14;94670.69;5111520;28;20424;-60
2023/03/07 09:04:18;;;;;;;0.50;0.50;;;;;;;20.07;43.12;94680.59;5111422;28;20463;-59
2023/03/07 09:06:46;;;;;;;0.50;0.47;;;;;;;21.86;41.72;94669.81;5111710;28;20424;-59
2023/03/07 09:09:14;;;;;;;0.77;0.60;;;;;;;20.35;41.87;94672.50;5111572;28;20812;-59
2023/03/07 09:11:43;;;;;;;1.00;0.37;;;;;;;19.62;44.12;94677.41;5114168;28;20503;-61
2023/03/07 09:14:11;;;;;;;0.40;0.30;;;;;;;18.70;45.38;94679.97;5115794;28;20415;-63
2023/03/07 09:16:39;;;;;;;0.67;0.67;;;;;;;17.65;46.71;94602.09;5116212;28;20424;-66
2023/03/07 09:19:09;;;;;;;0.50;0.50;;;;;;;18.67;46.28;94663.78;5116554;28;20419;-64
2023/03/07 09:21:38;;;;;;;0.80;0.63;;;;;;;19.14;44.98;94666.75;5115819;28;20471;-65
2023/03/07 09:24:06;;;;;;;0.90;0.90;;;;;;;19.06;45.40;94667.66;5115921;28;20468;-64
2023/03/07 09:26:35;;;;;;;0.60;0.57;;;;;;;17.95;47.07;94669.75;5115758;28;20492;-65
2023/03/07 09:29:03;;;;;;;0.40;0.40;;;;;;;18.89;45.96;94669.47;5116781;28;20431;-64
2023/03/07 09:31:32;;;;;;;1.90;0.80;;;;;;;17.45;47.30;94664.50;5115728;28;20443;-64
2023/03/07 09:34:00;;;;;;;0.67;0.40;;;;;;;18.22;47.04;94604.78;5115892;28;20431;-67
2023/03/07 09:36:30;;;;;;;1.33;1.03;;;;;;;18.86;46.44;94662.09;5115701;28;20484;-68
2023/03/07 09:38:58;;;;;;;0.47;0.37;;;;;;;19.25;45.48;94633.69;5115722;28;20431;-66
2023/03/07 09:41:45;;;;;;;0.40;0.33;;;;;;;18.19;46.24;94659.88;5115583;28;20424;-66
2023/03/07 09:44:23;;;;;;;3.67;1.50;;;;;;;17.07;48.20;94654.72;5115366;28;20892;-64
2023/03/07 09:47:09;;;;;;;0.73;0.73;;;;;;;17.06;49.13;94655.81;5115802;28;20426;-63
2023/03/07 09:49:44;;;;;;;14.10;1.50;;;;;;;17.36;48.30;94653.06;5115496;28;20452;-63
2023/03/07 09:52:16;;;;;;;0.40;0.40;;;;;;;17.89;47.99;94647.72;5114920;28;20502;-62
2023/03/07 09:54:49;;;;;;;0.57;0.57;;;;;;;18.26;48.21;94648.63;5115012;28;20724;-63
2023/03/07 09:57:23;;;;;;;0.50;0.43;;;;;;;17.89;48.53;94646.94;5115308;28;20432;-63
2023/03/07 09:59:55;;;;;;;1.37;1.37;;;;;;;17.99;47.52;94644.63;5115139;28;20834;-62
2023/03/07 10:02:29;;;;;;;0.40;0.30;;;;;;;18.09;46.20;94598.63;5114810;28;20494;-64
2023/03/07 10:05:10;;;;;;;1.67;0.60;;;;;;;18.51;45.41;94583.16;5114912;28;20926;-64
2023/03/07 10:07:40;;;;;;;0.40;0.40;;;;;;;18.33;46.41;94638.09;5114850;28;20507;-63
2023/03/07 10:10:14;;;;;;;0.80;0.67;;;;;;;17.74;48.28;94622.34;5115116;28;20451;-62
2023/03/07 10:13:00;;;;;;;1.17;1.17;;;;;;;19.28;47.44;94638.38;5114617;28;20521;-67
2023/03/07 10:15:44;;;;;;;0.60;0.60;;;;;;;18.99;44.84;94631.41;5114634;28;20523;-66
2023/03/07 10:18:27;;;;;;;0.60;0.60;;;;;;;21.07;42.63;94622.72;5114673;28;20442;-75
2023/03/07 10:21:02;;;;;;;1.23;1.13;;;;;;;22.20;39.91;94606.09;5114411;28;20479;-67
2023/03/07 10:23:51;;;;;;;4.10;0.77;;;;;;;21.18;40.85;94607.53;5114506;28;20510;-73
2023/03/07 10:26:26;;;;;;;0.50;0.40;;;;;;;19.27;42.60;94550.88;5114946;28;20808;-69
2023/03/07 10:28:54;;;;;;;0.93;0.93;;;;;;;18.44;42.91;94609.72;5114186;28;20947;-65
2023/03/07 10:31:25;;;;;;;1.07;1.07;;;;;;;17.60;43.84;94608.47;5114165;28;20790;-64
2023/03/07 10:33:54;;;;;;;1.63;0.90;;;;;;;17.54;43.67;94591.00;5114128;28;20793;-64
2023/03/07 10:36:33;;;;;;;0.60;0.60;;;;;;;17.98;44.53;94594.03;5113562;28;20518;-62
2023/03/07 10:39:07;;;;;;;1.40;1.30;;;;;;;17.97;43.70;94592.47;5113585;28;20484;-61
2023/03/07 10:41:35;;;;;;;0.43;0.37;;;;;;;17.62;43.19;94587.47;5113653;28;20431;-61
2023/03/07 10:44:03;;;;;;;0.50;0.50;;;;;;;17.72;43.83;94589.72;5113509;28;20428;-62
2023/03/07 10:46:34;;;;;;;0.50;0.40;;;;;;;17.88;43.62;94581.84;5113433;28;20460;-63
2023/03/07 10:49:13;;;;;;;0.40;0.30;;;;;;;17.42;43.06;94523.97;5114354;28;20514;-63
2023/03/07 10:51:53;;;;;;;0.40;0.20;;;;;;;17.43;44.35;94541.59;5113998;28;20846;-64
2023/03/07 10:54:28;;;;;;;1.27;1.17;;;;;;;17.40;43.38;94568.28;5113828;28;20978;-65
2023/03/07 10:57:05;;;;;;;0.70;0.60;;;;;;;17.15;43.65;94548.66;5114111;28;20515;-65
2023/03/07 10:59:34;;;;;;;0.50;0.30;;;;;;;16.91;43.77;94561.91;5113910;28;20488;-67
2023/03/07 11:02:16;;;;;;;0.83;0.83;;;;;;;16.71;43.68;94557.34;5113275;28;20452;-66
2023/03/07 11:04:46;;;;;;;0.40;0.30;;;;;;;17.34;43.20;94551.63;5113075;28;20457;-67
2023/03/07 11:07:29;;;;;;;0.40;0.30;;;;;;;18.33;42.26;94553.06;5113949;28;20463;-68
2023/03/07 11:10:00;;;;;;;0.50;0.30;;;;;;;17.56;40.69;94556.63;5113671;28;20568;-68
2023/03/07 11:12:30;;;;;;;0.50;0.50;;;;;;;17.38;40.96;94539.13;5113655;28;20428;-68
2023/03/07 11:15:11;;;;;;;1.17;0.50;;;;;;;16.66;41.55;94530.78;5113373;28;20435;-70
2023/03/07 11:17:42;;;;;;;0.40;0.30;;;;;;;16.77;42.42;94535.44;5113654;28;20415;-71
2023/03/07 11:20:20;;;;;;;2.57;0.30;;;;;;;17.11;42.05;94542.38;5113450;28;20516;-73
2023/03/07 11:22:49;;;;;;;0.43;0.30;;;;;;;17.32;41.39;94534.31;5113633;28;20815;-73
2023/03/07 11:25:25;;;;;;;4.70;0.30;;;;;;;16.64;42.14;94450.06;5113156;28;20478;-74
2023/03/07 11:27:57;;;;;;;0.40;0.30;;;;;;;17.80;41.31;94534.47;5113202;28;20470;-74
2023/03/07 11:30:28;;;;;;;0.40;0.20;;;;;;;18.18;41.51;94518.84;5113208;28;20437;-76
2023/03/07 11:33:07;;;;;;;0.50;0.30;;;;;;;18.01;41.27;94494.91;5113164;28;20828;-76
2023/03/07 11:36:02;;;;;;;0.70;0.50;;;;;;;17.75;42.95;94513.25;5113298;28;20424;-76
2023/03/07 11:38:51;;;;;;;0.40;0.27;;;;;;;17.44;41.83;94508.34;5099260;28;20432;-77
2023/03/07 11:41:26;;;;;;;0.50;0.50;;;;;;;16.60;42.09;94497.28;5113391;28;20424;-77
2023/03/07 11:44:19;;;;;;;0.50;0.30;;;;;;;16.62;42.23;94498.53;5113610;28;20423;-77
2023/03/07 11:47:11;;;;;;;0.77;0.60;;;;;;;16.14;42.75;94474.91;5113857;28;20462;-76
2023/03/07 11:49:45;;;;;;;0.77;0.77;;;;;;;16.07;42.48;94444.47;5113534;28;20432;-76
2023/03/07 11:52:39;;;;;;;0.40;0.30;;;;;;;16.61;42.15;94483.59;5113820;28;20427;-77
2023/03/07 11:55:23;;;;;;;1.83;1.03;;;;;;;16.97;40.93;94480.31;5113158;28;20897;-76
2023/03/07 11:58:07;;;;;;;0.40;0.40;;;;;;;17.55;39.85;94477.38;5113374;28;20420;-75